createdAt,value
2019-02-12T00:01:03.314Z,1.92
2019-02-12T00:03:35.820Z,1.90
2019-02-12T00:06:08.160Z,1.93
2019-02-12T00:08:40.676Z,1.97
2019-02-12T00:11:13.158Z,1.95
2019-02-12T00:13:46.130Z,1.92
2019-02-12T00:16:18.544Z,1.90
2019-02-12T00:18:50.574Z,1.90
2019-02-12T00:21:22.947Z,1.90
2019-02-12T00:23:55.266Z,1.87
2019-02-12T00:26:27.341Z,1.87
2019-02-12T00:28:59.987Z,1.85
2019-02-12T00:31:32.079Z,1.87
2019-02-12T00:34:04.140Z,1.87
2019-02-12T00:36:37.284Z,1.88
2019-02-12T00:39:09.728Z,1.91
2019-02-12T00:41:42.521Z,1.87
2019-02-12T00:44:14.870Z,1.89
2019-02-12T00:46:46.964Z,1.88
2019-02-12T00:49:19.043Z,1.88
2019-02-12T00:51:51.897Z,1.91
2019-02-12T00:54:24.276Z,1.91
2019-02-12T00:56:57.063Z,1.92
2019-02-12T00:59:29.418Z,1.94
2019-02-12T01:02:01.466Z,1.93
2019-02-12T01:04:33.622Z,1.95
2019-02-12T01:07:05.712Z,1.92
2019-02-12T01:09:38.139Z,1.96
2019-02-12T01:12:10.809Z,1.99
2019-02-12T01:14:43.143Z,2.01
2019-02-12T01:17:15.216Z,1.97
2019-02-12T01:19:47.264Z,2.10
2019-02-12T01:22:19.936Z,2.11
2019-02-12T01:24:52.039Z,2.09
2019-02-12T01:27:25.059Z,2.14
2019-02-12T01:29:57.397Z,2.14
2019-02-12T01:32:29.584Z,2.17
2019-02-12T01:35:02.073Z,2.14
2019-02-12T01:37:34.454Z,2.09
2019-02-12T01:40:07.604Z,2.08
2019-02-12T01:42:40.307Z,2.04
2019-02-12T01:45:13.952Z,2.16
2019-02-12T01:47:46.976Z,2.21
2019-02-12T01:50:19.350Z,2.15
2019-02-12T01:52:51.823Z,2.12
2019-02-12T01:55:24.166Z,2.10
2019-02-12T01:57:56.539Z,2.10
2019-02-12T02:00:30.130Z,2.13
2019-02-12T02:03:02.764Z,2.10
2019-02-12T02:05:35.860Z,2.10
2019-02-12T02:08:06.934Z,2.11
2019-02-12T02:10:39.165Z,2.06
2019-02-12T02:13:12.029Z,2.12
2019-02-12T02:15:44.415Z,2.15
2019-02-12T02:18:16.834Z,2.13
2019-02-12T02:20:49.243Z,2.12
2019-02-12T02:23:21.699Z,2.07
2019-02-12T02:25:54.422Z,2.09
2019-02-12T02:28:26.788Z,2.13
2019-02-12T02:30:58.848Z,2.14
2019-02-12T02:33:31.459Z,2.12
2019-02-12T02:36:03.890Z,2.11
2019-02-12T02:38:36.254Z,2.12
2019-02-12T02:41:08.276Z,2.10
2019-02-12T02:43:40.353Z,2.12
2019-02-12T02:46:13.018Z,2.12
2019-02-12T02:48:45.477Z,2.09
2019-02-12T02:51:17.788Z,2.13
2019-02-12T02:53:50.286Z,2.12
2019-02-12T02:56:23.089Z,2.10
2019-02-12T02:58:55.420Z,2.07
2019-02-12T03:01:27.492Z,2.05
2019-02-12T03:03:59.547Z,2.03
2019-02-12T03:06:31.581Z,2.01
2019-02-12T03:09:05.344Z,2.01
2019-02-12T03:11:38.011Z,1.99
2019-02-12T03:14:10.207Z,1.95
2019-02-12T03:16:42.512Z,1.96
2019-02-12T03:19:14.584Z,1.93
2019-02-12T03:21:46.627Z,1.92
2019-02-12T03:24:18.699Z,1.91
2019-02-12T03:26:51.460Z,1.88
2019-02-12T03:29:24.320Z,1.86
2019-02-12T03:31:56.710Z,1.89
2019-02-12T03:34:28.862Z,1.90
2019-02-12T03:37:01.019Z,1.87
2019-02-12T03:39:33.079Z,1.87
2019-02-12T03:42:05.141Z,1.85
2019-02-12T03:44:37.794Z,1.86
2019-02-12T03:47:09.938Z,1.84
2019-02-12T03:49:41.998Z,1.82
2019-02-12T03:52:14.126Z,1.83
2019-02-12T03:54:46.223Z,1.81
2019-02-12T03:57:18.392Z,1.80
2019-02-12T03:59:50.903Z,1.81
2019-02-12T04:02:23.328Z,1.79
2019-02-12T04:04:55.819Z,1.77
2019-02-12T04:07:28.305Z,1.77
2019-02-12T04:10:00.745Z,1.76
2019-02-12T04:12:33.032Z,1.76
2019-02-12T04:15:05.151Z,1.75
2019-02-12T04:17:37.208Z,1.73
2019-02-12T04:20:09.257Z,1.75
2019-02-12T04:22:41.874Z,1.73
2019-02-12T04:25:14.236Z,1.73
2019-02-12T04:27:46.879Z,1.72
2019-02-12T04:30:19.202Z,1.72
2019-02-12T04:32:51.332Z,1.73
2019-02-12T04:35:23.516Z,1.74
2019-02-12T04:37:56.040Z,1.69
2019-02-12T04:40:30.169Z,1.69
2019-02-12T04:43:02.795Z,1.70
2019-02-12T04:45:34.854Z,1.69
2019-02-12T04:48:07.006Z,1.72
2019-02-12T04:50:39.062Z,1.71
2019-02-12T04:53:11.128Z,1.71
2019-02-12T04:55:43.281Z,1.71
2019-02-12T04:58:15.325Z,1.72
2019-02-12T05:00:47.390Z,1.73
2019-02-12T05:03:19.495Z,1.74
2019-02-12T05:05:51.565Z,1.71
2019-02-12T05:08:24.188Z,1.74
2019-02-12T05:11:03.172Z,1.71
2019-02-12T05:13:35.762Z,1.72
2019-02-12T05:16:08.490Z,1.68
2019-02-12T05:18:41.161Z,1.71
2019-02-12T05:21:13.668Z,1.67
2019-02-12T05:23:45.975Z,1.67
2019-02-12T05:26:18.116Z,1.68
2019-02-12T05:28:50.181Z,1.66
2019-02-12T05:31:22.326Z,1.65
2019-02-12T05:33:54.373Z,1.65
2019-02-12T05:36:26.603Z,1.66
2019-02-12T05:38:58.917Z,1.63
2019-02-12T05:41:31.099Z,1.60
2019-02-12T05:44:03.159Z,1.60
2019-02-12T05:46:35.320Z,1.65
2019-02-12T05:49:08.034Z,1.64
2019-02-12T05:51:41.043Z,1.61
2019-02-12T05:54:13.773Z,1.62
2019-02-12T05:56:46.105Z,1.62
2019-02-12T05:59:18.166Z,1.60
2019-02-12T06:01:50.841Z,1.59
2019-02-12T06:04:23.256Z,1.63
2019-02-12T06:06:55.607Z,1.63
2019-02-12T06:09:27.745Z,1.65
2019-02-12T06:11:59.864Z,1.60
2019-02-12T06:14:44.764Z,1.58
2019-02-12T06:17:17.456Z,1.58
2019-02-12T06:19:49.921Z,1.57
2019-02-12T06:22:22.259Z,1.58
2019-02-12T06:24:54.639Z,1.57
2019-02-12T06:27:27.097Z,1.56
2019-02-12T06:29:59.450Z,1.56
2019-02-12T06:32:31.803Z,1.56
2019-02-12T06:35:04.662Z,1.58
2019-02-12T06:37:37.094Z,1.57
2019-02-12T06:40:09.854Z,1.57
2019-02-12T06:42:42.207Z,1.56
2019-02-12T06:45:14.362Z,1.58
2019-02-12T06:47:46.485Z,1.55
2019-02-12T06:50:18.517Z,1.54
2019-02-12T06:52:51.314Z,1.56
2019-02-12T06:55:23.749Z,1.59
2019-02-12T06:57:55.849Z,1.60
2019-02-12T07:00:28.531Z,1.59
2019-02-12T07:03:15.856Z,1.64
2019-02-12T07:06:11.722Z,1.65
2019-02-12T07:10:00.859Z,1.65
2019-02-12T07:13:20.269Z,1.67
2019-02-12T07:16:54.895Z,1.68
2019-02-12T07:20:09.111Z,1.70
2019-02-12T07:23:06.673Z,1.70
2019-02-12T07:26:24.578Z,1.75
2019-02-12T07:29:53.873Z,1.75
2019-02-12T07:33:13.296Z,1.79
2019-02-12T07:36:32.867Z,1.86
2019-02-12T07:39:50.600Z,1.90
2019-02-12T07:43:47.945Z,1.93
2019-02-12T07:47:22.059Z,1.95
2019-02-12T07:51:01.328Z,1.98
2019-02-12T07:54:35.058Z,2.02
2019-02-12T07:58:22.278Z,2.06
2019-02-12T08:01:14.397Z,2.09
2019-02-12T08:04:55.963Z,2.12
2019-02-12T08:08:44.271Z,2.13
2019-02-12T08:12:17.240Z,2.19
2019-02-12T08:15:42.758Z,2.24
2019-02-12T08:18:43.828Z,2.30
2019-02-12T08:21:50.703Z,2.41
2019-02-12T08:25:10.113Z,2.42
2019-02-12T08:28:40.117Z,2.43
2019-02-12T08:31:31.195Z,2.46
2019-02-12T08:35:12.712Z,2.57
2019-02-12T08:38:28.263Z,2.64
2019-02-12T08:42:02.680Z,2.67
2019-02-12T08:45:22.771Z,2.72
2019-02-12T08:48:52.465Z,2.76
2019-02-12T08:52:19.341Z,2.83
2019-02-12T08:56:10.402Z,2.92
2019-02-12T08:59:37.270Z,3.00
2019-02-12T09:03:20.713Z,3.06
2019-02-12T09:06:39.652Z,3.09
2019-02-12T09:10:07.226Z,3.13
2019-02-12T09:13:32.969Z,3.25
2019-02-12T09:17:35.736Z,3.32
2019-02-12T09:20:59.605Z,3.33
2019-02-12T09:24:06.367Z,3.41
2019-02-12T09:27:17.010Z,3.37
2019-02-12T09:30:38.110Z,3.50
2019-02-12T09:33:41.456Z,3.55
2019-02-12T09:36:49.768Z,3.58
2019-02-12T09:40:49.555Z,3.60
2019-02-12T09:44:40.257Z,3.72
2019-02-12T09:48:10.908Z,3.67
2019-02-12T09:51:11.977Z,3.66
2019-02-12T09:54:42.378Z,3.70
2019-02-12T09:57:38.376Z,3.79
2019-02-12T10:01:21.951Z,3.91
2019-02-12T10:04:48.276Z,3.88
2019-02-12T10:08:22.827Z,3.89
2019-02-12T10:11:49.247Z,3.83
2019-02-12T10:15:01.684Z,3.86
2019-02-12T10:18:46.160Z,3.96
2019-02-12T10:22:33.184Z,4.12
2019-02-12T10:25:33.088Z,4.18
2019-02-12T10:29:07.794Z,4.08
2019-02-12T10:31:44.457Z,4.16
2019-02-12T10:34:17.073Z,4.53
2019-02-12T10:36:49.126Z,4.64
2019-02-12T10:39:21.675Z,4.70
2019-02-12T10:41:54.161Z,4.84
2019-02-12T10:44:27.006Z,5.03
2019-02-12T10:46:59.333Z,4.98
2019-02-12T10:49:31.415Z,4.94
2019-02-12T10:52:04.031Z,4.69
2019-02-12T10:54:36.441Z,4.87
2019-02-12T10:57:08.779Z,4.86
2019-02-12T10:59:40.846Z,4.81
2019-02-12T11:02:13.495Z,4.90
2019-02-12T11:04:46.434Z,4.79
2019-02-12T11:07:18.877Z,4.68
2019-02-12T11:09:51.900Z,4.81
2019-02-12T11:12:24.827Z,4.79
2019-02-12T11:14:57.248Z,4.89
2019-02-12T11:17:30.760Z,4.72
2019-02-12T11:20:03.465Z,4.78
2019-02-12T11:22:35.725Z,5.13
2019-02-12T11:25:08.793Z,4.97
2019-02-12T11:27:41.131Z,4.80
2019-02-12T11:30:13.237Z,4.93
2019-02-12T11:32:45.351Z,4.79
2019-02-12T11:35:17.793Z,4.60
2019-02-12T11:37:50.541Z,4.55
2019-02-12T11:40:23.386Z,4.65
2019-02-12T11:42:56.662Z,4.63
2019-02-12T11:45:28.300Z,4.64
2019-02-12T11:48:00.412Z,4.73
2019-02-12T11:50:32.750Z,4.91
2019-02-12T11:53:04.912Z,4.82
2019-02-12T11:55:37.406Z,4.77
2019-02-12T11:58:09.919Z,4.70
2019-02-12T12:01:01.227Z,4.66
2019-02-12T12:03:33.839Z,4.59
2019-02-12T12:06:05.941Z,4.63
2019-02-12T12:08:37.994Z,4.56
2019-02-12T12:11:10.401Z,4.62
2019-02-12T12:13:42.768Z,4.62
2019-02-12T12:16:14.835Z,4.83
2019-02-12T12:18:46.878Z,4.70
2019-02-12T12:21:18.980Z,4.66
2019-02-12T12:23:51.041Z,4.67
2019-02-12T12:26:23.643Z,4.74
2019-02-12T12:28:55.801Z,4.83
2019-02-12T12:31:28.213Z,4.91
2019-02-12T12:34:00.274Z,4.92
2019-02-12T12:36:33.225Z,4.89
2019-02-12T12:39:06.706Z,4.72
2019-02-12T12:41:39.370Z,4.71
2019-02-12T12:44:13.395Z,4.73
2019-02-12T12:46:46.019Z,4.94
2019-02-12T12:49:18.091Z,4.91
2019-02-12T12:51:50.739Z,4.96
2019-02-12T12:54:22.774Z,4.87
2019-02-12T12:56:55.568Z,4.78
2019-02-12T12:59:28.537Z,4.90
2019-02-12T13:02:01.011Z,4.69
2019-02-12T13:04:33.350Z,4.84
2019-02-12T13:07:05.774Z,4.89
2019-02-12T13:09:38.088Z,5.06
2019-02-12T13:12:11.216Z,4.86
2019-02-12T13:14:44.308Z,4.85
2019-02-12T13:17:16.643Z,5.02
2019-02-12T13:19:49.049Z,5.12
2019-02-12T13:22:21.385Z,5.14
2019-02-12T13:24:53.783Z,4.97
2019-02-12T13:27:26.523Z,4.92
2019-02-12T13:30:00.210Z,5.07
2019-02-12T13:32:34.164Z,4.94
2019-02-12T13:35:07.458Z,4.99
2019-02-12T13:37:39.790Z,4.92
2019-02-12T13:40:12.788Z,4.85
2019-02-12T13:42:43.849Z,4.74
2019-02-12T13:45:15.910Z,4.83
2019-02-12T13:47:48.439Z,4.84
2019-02-12T13:50:20.790Z,4.77
2019-02-12T13:52:52.864Z,4.67
2019-02-12T13:55:25.134Z,4.62
2019-02-12T13:57:57.577Z,4.71
2019-02-12T14:00:30.140Z,4.76
2019-02-12T14:03:02.570Z,4.64
2019-02-12T14:05:35.316Z,4.71
2019-02-12T14:08:07.994Z,4.66
2019-02-12T14:10:40.313Z,4.66
2019-02-12T14:13:13.076Z,4.67
2019-02-12T14:15:45.730Z,4.70
2019-02-12T14:18:18.121Z,4.61
2019-02-12T14:20:50.271Z,4.66
2019-02-12T14:23:22.374Z,4.53
2019-02-12T14:25:54.806Z,4.56
2019-02-12T14:28:27.208Z,4.43
2019-02-12T14:30:59.253Z,4.43
2019-02-12T14:33:32.883Z,4.44
2019-02-12T14:36:05.492Z,4.43
2019-02-12T14:38:37.571Z,4.52
2019-02-12T14:41:09.729Z,4.42
2019-02-12T14:43:41.881Z,4.53
2019-02-12T14:46:14.013Z,4.49
2019-02-12T14:48:47.302Z,4.49
2019-02-12T14:51:20.368Z,4.49
2019-02-12T14:53:52.739Z,4.56
2019-02-12T14:56:25.317Z,4.52
2019-02-12T14:58:57.720Z,4.51
2019-02-12T15:01:30.175Z,4.41
2019-02-12T15:04:02.885Z,4.50
2019-02-12T15:06:35.622Z,4.52
2019-02-12T15:09:08.508Z,4.50
2019-02-12T15:11:40.838Z,4.45
2019-02-12T15:14:12.927Z,4.53
2019-02-12T15:16:45.109Z,4.41
2019-02-12T15:19:17.284Z,4.38
2019-02-12T15:21:50.058Z,4.45
2019-02-12T15:24:22.922Z,4.48
2019-02-12T15:26:55.328Z,4.40
2019-02-12T15:29:30.302Z,4.30
2019-02-12T15:32:02.698Z,4.22
2019-02-12T15:34:36.358Z,4.29
2019-02-12T15:37:09.107Z,4.25
2019-02-12T15:39:41.215Z,4.16
2019-02-12T15:42:13.459Z,4.10
2019-02-12T15:44:46.246Z,4.08
2019-02-12T15:47:18.622Z,4.09
2019-02-12T15:49:50.842Z,4.02
2019-02-12T15:52:23.274Z,4.01
2019-02-12T15:54:55.665Z,3.95
2019-02-12T15:57:28.232Z,3.93
2019-02-12T16:00:00.996Z,3.95
2019-02-12T16:02:34.449Z,3.90
2019-02-12T16:05:10.888Z,3.89
2019-02-12T16:07:45.189Z,3.87
2019-02-12T16:10:19.804Z,3.83
2019-02-12T16:12:51.649Z,3.83
2019-02-12T16:15:24.743Z,3.84
2019-02-12T16:17:58.376Z,3.83
2019-02-12T16:20:33.085Z,3.78
2019-02-12T16:23:06.150Z,3.76
2019-02-12T16:25:38.621Z,3.74
2019-02-12T16:28:11.142Z,3.72
2019-02-12T16:30:43.536Z,3.72
2019-02-12T16:33:15.600Z,3.69
2019-02-12T16:35:48.050Z,3.66
2019-02-12T16:38:20.785Z,3.64
2019-02-12T16:40:53.158Z,3.61
2019-02-12T16:43:25.394Z,3.61
2019-02-12T16:46:09.495Z,3.60
2019-02-12T16:48:42.632Z,3.60
2019-02-12T16:51:15.199Z,3.55
2019-02-12T16:53:47.558Z,3.51
2019-02-12T16:56:23.245Z,3.50
2019-02-12T16:59:03.411Z,3.44
2019-02-12T17:01:30.643Z,3.47
2019-02-12T17:04:03.159Z,3.46
2019-02-12T17:06:35.904Z,3.40
2019-02-12T17:09:08.512Z,3.34
2019-02-12T17:11:40.886Z,3.34
2019-02-12T17:14:13.022Z,3.27
2019-02-12T17:16:45.493Z,3.28
2019-02-12T17:19:18.300Z,3.30
2019-02-12T17:21:50.797Z,3.27
2019-02-12T17:24:23.175Z,3.27
2019-02-12T17:26:56.000Z,3.25
2019-02-12T17:29:28.451Z,3.27
2019-02-12T17:32:01.587Z,3.26
2019-02-12T17:34:33.756Z,3.26
2019-02-12T17:37:06.225Z,3.25
2019-02-12T17:39:38.549Z,3.25
2019-02-12T17:42:10.617Z,3.21
2019-02-12T17:44:42.711Z,3.22
2019-02-12T17:47:14.809Z,3.21
2019-02-12T17:49:47.540Z,3.19
2019-02-12T17:52:20.542Z,3.21
2019-02-12T17:54:53.144Z,3.23
2019-02-12T17:57:25.691Z,3.23
2019-02-12T17:59:58.011Z,3.24
2019-02-12T18:02:30.197Z,3.22
2019-02-12T18:05:14.492Z,3.22
2019-02-12T18:07:48.700Z,3.21
2019-02-12T18:10:21.052Z,3.20
2019-02-12T18:12:53.248Z,3.23
2019-02-12T18:15:25.901Z,3.21
2019-02-12T18:17:58.872Z,3.24
2019-02-12T18:20:31.975Z,3.23
2019-02-12T18:23:04.348Z,3.22
2019-02-12T18:25:36.491Z,3.21
2019-02-12T18:28:08.890Z,3.22
2019-02-12T18:30:41.339Z,3.26
2019-02-12T18:33:13.510Z,3.24
2019-02-12T18:35:46.109Z,3.25
2019-02-12T18:38:18.566Z,3.25
2019-02-12T18:40:50.913Z,3.24
2019-02-12T18:43:22.988Z,3.27
2019-02-12T18:45:55.608Z,3.28
2019-02-12T18:48:27.680Z,3.25
2019-02-12T18:51:00.133Z,3.25
2019-02-12T18:53:32.501Z,3.24
2019-02-12T18:56:04.790Z,3.24
2019-02-12T18:58:37.195Z,3.25
2019-02-12T19:01:09.847Z,3.28
2019-02-12T19:03:42.828Z,3.29
2019-02-12T19:06:15.510Z,3.32
2019-02-12T19:08:48.192Z,3.30
2019-02-12T19:11:21.259Z,3.30
2019-02-12T19:13:53.669Z,3.28
2019-02-12T19:16:26.302Z,3.29
2019-02-12T19:18:58.937Z,3.28
2019-02-12T19:21:31.330Z,3.30
2019-02-12T19:24:03.430Z,3.31
2019-02-12T19:26:35.790Z,3.26
2019-02-12T19:29:08.137Z,3.27
2019-02-12T19:31:40.369Z,3.30
2019-02-12T19:34:12.858Z,3.29
2019-02-12T19:36:45.538Z,3.27
2019-02-12T19:39:18.044Z,3.26
2019-02-12T19:41:51.044Z,3.29
2019-02-12T19:44:26.027Z,3.28
2019-02-12T19:46:58.427Z,3.29
2019-02-12T19:49:30.864Z,3.29
2019-02-12T19:52:03.438Z,3.29
2019-02-12T19:54:36.778Z,3.27
2019-02-12T19:57:07.774Z,3.27
2019-02-12T19:59:40.702Z,3.26
2019-02-12T20:02:11.776Z,3.29
2019-02-12T20:04:43.900Z,3.32
2019-02-12T20:07:17.122Z,3.29
2019-02-12T20:09:49.765Z,3.30
2019-02-12T20:12:22.614Z,3.28
2019-02-12T20:14:56.481Z,3.30
2019-02-12T20:17:29.811Z,3.28
2019-02-12T20:20:02.156Z,3.28
2019-02-12T20:22:34.322Z,3.30
2019-02-12T20:25:07.128Z,3.30
2019-02-12T20:27:39.584Z,3.27
2019-02-12T20:30:13.850Z,3.28
2019-02-12T20:32:46.612Z,3.26
2019-02-12T20:35:19.134Z,3.26
2019-02-12T20:37:51.541Z,3.28
2019-02-12T20:40:24.047Z,3.31
2019-02-12T20:42:56.405Z,3.28
2019-02-12T20:45:28.549Z,3.27
2019-02-12T20:48:00.709Z,3.29
2019-02-12T20:50:33.286Z,3.30
2019-02-12T20:53:06.013Z,3.28
2019-02-12T20:55:38.346Z,3.28
2019-02-12T20:58:10.410Z,3.27
2019-02-12T21:00:43.433Z,3.26
2019-02-12T21:03:15.875Z,3.27
2019-02-12T21:05:48.524Z,3.25
2019-02-12T21:08:20.990Z,3.24
2019-02-12T21:10:53.374Z,3.22
2019-02-12T21:13:25.754Z,3.26
2019-02-12T21:15:58.283Z,3.23
2019-02-12T21:18:31.008Z,3.22
2019-02-12T21:21:03.372Z,3.21
2019-02-12T21:23:35.745Z,3.21
2019-02-12T21:26:08.172Z,3.22
2019-02-12T21:28:41.186Z,3.24
2019-02-12T21:31:13.544Z,3.22
2019-02-12T21:33:45.963Z,3.23
2019-02-12T21:36:18.330Z,3.23
2019-02-12T21:38:51.096Z,3.24
2019-02-12T21:41:23.505Z,3.20
2019-02-12T21:43:55.696Z,3.19
2019-02-12T21:46:28.136Z,3.20
2019-02-12T21:49:00.504Z,3.22
2019-02-12T21:51:33.176Z,3.19
2019-02-12T21:54:05.757Z,3.16
2019-02-12T21:56:38.464Z,3.14
2019-02-12T21:59:10.887Z,3.21
2019-02-12T22:01:42.941Z,3.22
2019-02-12T22:04:15.324Z,3.22
2019-02-12T22:06:48.027Z,3.23
2019-02-12T22:09:20.538Z,3.23
2019-02-12T22:11:52.927Z,3.22
2019-02-12T22:14:25.295Z,3.23
2019-02-12T22:16:57.366Z,3.15
2019-02-12T22:19:30.369Z,3.16
2019-02-12T22:22:03.080Z,3.13
2019-02-12T22:24:35.993Z,3.15
2019-02-12T22:27:08.902Z,3.14
2019-02-12T22:29:41.257Z,3.14
2019-02-12T22:32:14.075Z,3.12
2019-02-12T22:34:46.269Z,3.11
2019-02-12T22:37:18.596Z,3.07
2019-02-12T22:39:51.193Z,3.04
2019-02-12T22:42:23.889Z,3.06
2019-02-12T22:44:56.368Z,3.06
2019-02-12T22:47:28.720Z,3.03
2019-02-12T22:50:01.184Z,3.03
2019-02-12T22:52:33.774Z,3.04
2019-02-12T22:55:06.310Z,3.07
2019-02-12T22:57:38.708Z,3.06
2019-02-12T23:00:40.068Z,3.01
2019-02-12T23:03:12.777Z,3.08
2019-02-12T23:05:44.943Z,3.05
2019-02-12T23:08:17.416Z,3.03
2019-02-12T23:10:51.469Z,3.02
2019-02-12T23:13:24.108Z,3.03
2019-02-12T23:15:56.217Z,3.03
2019-02-12T23:18:28.296Z,3.05
2019-02-12T23:21:00.624Z,3.01
2019-02-12T23:23:32.966Z,3.00
2019-02-12T23:26:06.233Z,2.99
2019-02-12T23:28:39.043Z,2.99
2019-02-12T23:31:11.391Z,2.97
2019-02-12T23:33:43.566Z,2.94
2019-02-12T23:36:15.678Z,2.92
2019-02-12T23:38:47.757Z,2.87
2019-02-12T23:41:20.566Z,2.80
2019-02-12T23:43:52.934Z,2.85
2019-02-12T23:46:25.030Z,2.79
2019-02-12T23:48:57.071Z,2.72
2019-02-12T23:51:30.157Z,2.68
2019-02-12T23:54:01.524Z,2.67
2019-02-12T23:56:33.625Z,2.65
2019-02-12T23:59:06.348Z,2.68
